Time;durP1;ratioP1;P1;durP2;ratioP2;P2;SDS_P1;SDS_P2;PMS_P1;PMS_P2;Temp;Humidity;BMP_temperature;BMP_pressure;BME280_temperature;BME280_humidity;BME280_pressure;Samples;Min_cycle;Max_cycle;Signal;HPM_P1;HPM_P2
2022/09/12 00:01:57;;;;;;;3.42;1.65;;;;;;;;;;5059231;28;20053;-53
2022/09/12 00:04:27;;;;;;;4.45;1.48;;;;;;;;;;5059420;28;20053;-53
2022/09/12 00:06:57;;;;;;;2.75;1.30;;;;;;;;;;5069228;28;20053;-53
2022/09/12 00:09:26;;;;;;;2.72;1.40;;;;;;;;;;5079421;28;20057;-53
2022/09/12 00:11:56;;;;;;;2.00;0.93;;;;;;;;;;5078983;28;20582;-52
2022/09/12 00:14:32;;;;;;;2.70;1.30;;;;;;;;;;5078584;28;20064;-52
2022/09/12 00:17:02;;;;;;;1.83;1.23;;;;;;;;;;5079462;28;20131;-52
2022/09/12 00:19:32;;;;;;;2.60;1.30;;;;;;;;;;5079585;28;20055;-53
2022/09/12 00:22:00;;;;;;;5.47;1.40;;;;;;;;;;5079133;28;20052;-52
2022/09/12 00:24:30;;;;;;;2.13;1.20;;;;;;;;;;5078776;28;20377;-50
2022/09/12 00:27:00;;;;;;;3.00;1.00;;;;;;;;;;5078755;28;20063;-52
2022/09/12 00:29:41;;;;;;;3.50;1.42;;;;;;;;;;5076882;28;20135;-51
2022/09/12 00:32:11;;;;;;;4.72;1.40;;;;;;;;;;5076068;28;20143;-50
2022/09/12 00:34:38;;;;;;;2.17;1.10;;;;;;;;;;5075771;28;20469;-51
2022/09/12 00:37:06;;;;;;;2.33;1.20;;;;;;;;;;5075471;28;20062;-51
2022/09/12 00:39:34;;;;;;;2.85;1.10;;;;;;;;;;5075964;28;20052;-52
2022/09/12 00:42:02;;;;;;;3.38;1.35;;;;;;;;;;5075892;28;20051;-53
2022/09/12 00:44:47;;;;;;;3.58;1.60;;;;;;;;;;5075544;28;20506;-50
2022/09/12 00:47:24;;;;;;;4.55;1.40;;;;;;;;;;5075401;28;20056;-53
2022/09/12 00:50:15;;;;;;;3.25;1.25;;;;;;;;;;5081305;28;20048;-51
2022/09/12 00:52:45;;;;;;;2.83;1.00;;;;;;;;;;5089227;28;20461;-53
2022/09/12 00:55:22;;;;;;;4.00;1.35;;;;;;;;;;5075739;28;20048;-51
2022/09/12 00:57:54;;;;;;;2.33;1.13;;;;;;;;;;5075399;28;20054;-53
2022/09/12 01:00:33;;;;;;;3.22;1.40;;;;;;;;;;5055368;28;20513;-53
2022/09/12 01:03:13;;;;;;;5.38;1.55;;;;;;;;;;5055338;28;20049;-53
2022/09/12 01:05:51;;;;;;;2.42;1.25;;;;;;;;;;5055573;28;20061;-50
2022/09/12 01:08:22;;;;;;;2.50;1.27;;;;;;;;;;5054989;28;20044;-50
2022/09/12 01:10:51;;;;;;;5.85;1.20;;;;;;;;;;5055503;28;20052;-50
2022/09/12 01:13:21;;;;;;;2.70;1.00;;;;;;;;;;5054588;28;20551;-54
2022/09/12 01:15:49;;;;;;;4.03;1.23;;;;;;;;;;5054807;28;20493;-54
2022/09/12 01:18:29;;;;;;;2.05;1.27;;;;;;;;;;5054995;28;20049;-53
2022/09/12 01:21:15;;;;;;;2.95;1.02;;;;;;;;;;5055479;28;20057;-53
2022/09/12 01:24:11;;;;;;;2.15;1.00;;;;;;;;;;5055006;28;20077;-52
2022/09/12 01:26:59;;;;;;;3.88;1.23;;;;;;;;;;4993347;28;20057;-52
2022/09/12 01:29:37;;;;;;;2.95;1.30;;;;;;;;;;4993134;28;20046;-54
2022/09/12 01:32:10;;;;;;;2.50;1.00;;;;;;;;;;4993462;28;20077;-50
2022/09/12 01:34:41;;;;;;;2.58;1.40;;;;;;;;;;4993215;28;20083;-54
2022/09/12 01:37:14;;;;;;;2.00;1.20;;;;;;;;;;4993261;28;20054;-53
2022/09/12 01:39:49;;;;;;;5.30;1.40;;;;;;;;;;4993259;28;20054;-54
2022/09/12 01:42:21;;;;;;;2.30;1.00;;;;;;;;;;4991930;28;20112;-53
2022/09/12 01:44:56;;;;;;;3.45;1.08;;;;;;;;;;4993243;28;20090;-53
2022/09/12 01:47:31;;;;;;;2.33;1.23;;;;;;;;;;5012082;28;20049;-53
2022/09/12 01:50:00;;;;;;;4.72;1.15;;;;;;;;;;5060370;28;20385;-54
2022/09/12 01:52:31;;;;;;;3.60;1.17;;;;;;;;;;5064937;28;20044;-53
2022/09/12 01:55:04;;;;;;;3.70;1.38;;;;;;;;;;5069610;28;20477;-52
2022/09/12 01:57:41;;;;;;;3.63;1.58;;;;;;;;;;5054241;28;20056;-54
2022/09/12 02:00:14;;;;;;;3.67;1.20;;;;;;;;;;5071332;28;20081;-50
2022/09/12 02:03:01;;;;;;;3.65;1.40;;;;;;;;;;5073964;28;20063;-50
2022/09/12 02:05:31;;;;;;;4.22;1.33;;;;;;;;;;5074233;28;20131;-52
2022/09/12 02:08:04;;;;;;;3.80;1.38;;;;;;;;;;5055279;28;20041;-53
2022/09/12 02:10:41;;;;;;;2.10;1.15;;;;;;;;;;5054411;28;20124;-53
2022/09/12 02:13:11;;;;;;;2.40;0.98;;;;;;;;;;5053415;28;20433;-50
2022/09/12 02:15:48;;;;;;;4.75;2.50;;;;;;;;;;5053956;28;20048;-51
2022/09/12 02:18:23;;;;;;;4.57;1.20;;;;;;;;;;5053965;28;20060;-50
2022/09/12 02:20:50;;;;;;;2.63;0.93;;;;;;;;;;5069215;28;20084;-51
2022/09/12 02:23:25;;;;;;;1.80;1.00;;;;;;;;;;5073734;28;20044;-52
2022/09/12 02:25:54;;;;;;;4.40;1.52;;;;;;;;;;5073678;28;20366;-52
2022/09/12 02:28:28;;;;;;;6.38;1.30;;;;;;;;;;5073734;28;20052;-51
2022/09/12 02:31:03;;;;;;;2.88;1.10;;;;;;;;;;5073758;28;20071;-53
2022/09/12 02:33:36;;;;;;;3.72;0.95;;;;;;;;;;5073824;28;20076;-53
2022/09/12 02:36:07;;;;;;;2.42;0.93;;;;;;;;;;5073989;28;20057;-51
2022/09/12 02:38:38;;;;;;;2.08;0.95;;;;;;;;;;5073540;28;20064;-53
2022/09/12 02:41:06;;;;;;;2.25;0.90;;;;;;;;;;5073724;28;20060;-54
2022/09/12 02:43:36;;;;;;;4.57;0.90;;;;;;;;;;5073395;28;20049;-51
2022/09/12 02:46:03;;;;;;;3.72;1.13;;;;;;;;;;5073537;28;20051;-53
2022/09/12 02:48:42;;;;;;;1.52;0.85;;;;;;;;;;5073566;28;20055;-53
2022/09/12 02:51:13;;;;;;;3.13;1.10;;;;;;;;;;5073354;28;20139;-54
2022/09/12 02:53:42;;;;;;;4.00;1.15;;;;;;;;;;5058886;28;20056;-52
2022/09/12 02:56:15;;;;;;;3.13;1.20;;;;;;;;;;5053581;28;20073;-53
2022/09/12 02:58:42;;;;;;;2.15;0.90;;;;;;;;;;5058643;28;20521;-50
2022/09/12 03:01:12;;;;;;;4.15;1.23;;;;;;;;;;5073512;28;20058;-50
2022/09/12 03:03:49;;;;;;;2.75;1.15;;;;;;;;;;5053418;28;20053;-51
2022/09/12 03:06:27;;;;;;;3.25;1.00;;;;;;;;;;5057926;28;20087;-50
2022/09/12 03:09:11;;;;;;;2.50;1.20;;;;;;;;;;5073418;28;20048;-53
2022/09/12 03:12:01;;;;;;;3.92;1.00;;;;;;;;;;5072975;28;20048;-54
2022/09/12 03:14:41;;;;;;;2.42;1.00;;;;;;;;;;5071369;28;20491;-54
2022/09/12 03:17:16;;;;;;;3.22;1.02;;;;;;;;;;5072776;28;20477;-51
2022/09/12 03:19:50;;;;;;;2.33;1.45;;;;;;;;;;5072720;28;20512;-51
2022/09/12 03:22:34;;;;;;;2.95;1.35;;;;;;;;;;5073254;28;20060;-51
2022/09/12 03:25:05;;;;;;;3.28;1.23;;;;;;;;;;5072780;28;20052;-49
2022/09/12 03:27:43;;;;;;;2.65;1.20;;;;;;;;;;5073114;28;20054;-52
2022/09/12 03:30:13;;;;;;;3.55;1.50;;;;;;;;;;5072883;28;20102;-53
2022/09/12 03:32:42;;;;;;;5.78;1.27;;;;;;;;;;5072567;28;20381;-52
2022/09/12 03:35:11;;;;;;;2.42;1.20;;;;;;;;;;5071606;28;20063;-50
2022/09/12 03:37:53;;;;;;;4.93;1.38;;;;;;;;;;5073184;28;20049;-52
2022/09/12 03:40:23;;;;;;;4.43;1.15;;;;;;;;;;5072963;28;20044;-54
2022/09/12 03:42:53;;;;;;;3.20;1.08;;;;;;;;;;5072792;28;20057;-52
2022/09/12 03:45:22;;;;;;;3.58;1.23;;;;;;;;;;5072976;28;20102;-51
2022/09/12 03:47:52;;;;;;;3.10;1.20;;;;;;;;;;5072544;28;20119;-52
2022/09/12 03:50:22;;;;;;;2.72;1.30;;;;;;;;;;5072436;28;20571;-50
2022/09/12 03:53:03;;;;;;;3.38;1.10;;;;;;;;;;5065736;28;20061;-53
2022/09/12 03:55:33;;;;;;;4.57;1.35;;;;;;;;;;5052467;28;20053;-53
2022/09/12 03:58:04;;;;;;;2.60;1.10;;;;;;;;;;5057345;28;20051;-50
2022/09/12 04:00:33;;;;;;;1.98;0.98;;;;;;;;;;5052242;28;20453;-50
2022/09/12 04:03:01;;;;;;;2.35;1.15;;;;;;;;;;5052322;28;20084;-53
2022/09/12 04:05:31;;;;;;;2.53;1.20;;;;;;;;;;5053951;28;20076;-52
2022/09/12 04:08:12;;;;;;;1.42;0.98;;;;;;;;;;5074584;28;20113;-54
2022/09/12 04:10:42;;;;;;;3.75;1.30;;;;;;;;;;5076474;28;20059;-53
2022/09/12 04:13:09;;;;;;;4.40;1.25;;;;;;;;;;5074641;28;20067;-52
2022/09/12 04:15:38;;;;;;;4.07;0.98;;;;;;;;;;5076115;28;20465;-51
2022/09/12 04:18:08;;;;;;;4.78;1.65;;;;;;;;;;5076256;28;20048;-53
2022/09/12 04:20:36;;;;;;;3.10;1.20;;;;;;;;;;5075774;28;20480;-52
2022/09/12 04:23:17;;;;;;;2.42;1.10;;;;;;;;;;5076337;28;20045;-52
2022/09/12 04:25:43;;;;;;;2.20;1.10;;;;;;;;;;5076089;28;20048;-51
2022/09/12 04:28:12;;;;;;;3.13;1.00;;;;;;;;;;5075988;28;20052;-51
2022/09/12 04:30:38;;;;;;;6.70;1.45;;;;;;;;;;5076082;28;20048;-54
2022/09/12 04:33:06;;;;;;;3.20;1.30;;;;;;;;;;5076144;28;20056;-54
2022/09/12 04:35:35;;;;;;;3.63;1.50;;;;;;;;;;5076035;28;20052;-50
2022/09/12 04:38:02;;;;;;;2.03;1.30;;;;;;;;;;5075732;28;20067;-53
2022/09/12 04:40:32;;;;;;;2.15;1.10;;;;;;;;;;5075743;28;20056;-54
2022/09/12 04:42:59;;;;;;;4.25;1.48;;;;;;;;;;5075844;28;20055;-54
2022/09/12 04:45:27;;;;;;;3.17;1.30;;;;;;;;;;5075485;28;20075;-51
2022/09/12 04:47:55;;;;;;;2.53;1.20;;;;;;;;;;5075839;28;20056;-54
2022/09/12 04:50:22;;;;;;;6.35;1.63;;;;;;;;;;5075568;28;20048;-54
2022/09/12 04:52:53;;;;;;;3.70;1.30;;;;;;;;;;5068631;28;20056;-52
2022/09/12 04:55:21;;;;;;;3.67;1.20;;;;;;;;;;5069061;28;20059;-50
2022/09/12 04:57:48;;;;;;;4.43;1.50;;;;;;;;;;5075323;28;20469;-50
2022/09/12 05:00:19;;;;;;;3.97;1.13;;;;;;;;;;5056806;28;20053;-50
2022/09/12 05:02:49;;;;;;;2.58;1.27;;;;;;;;;;5055648;28;20474;-50
2022/09/12 05:05:17;;;;;;;3.47;1.38;;;;;;;;;;5055180;28;20119;-50
2022/09/12 05:07:43;;;;;;;3.78;1.40;;;;;;;;;;5055228;28;20060;-50
2022/09/12 05:10:11;;;;;;;2.70;1.30;;;;;;;;;;5095263;28;20465;-50
2022/09/12 05:12:41;;;;;;;4.90;1.70;;;;;;;;;;5095205;28;20075;-50
2022/09/12 05:15:21;;;;;;;3.67;1.70;;;;;;;;;;5095378;28;20072;-52
2022/09/12 05:17:49;;;;;;;6.03;1.40;;;;;;;;;;5095701;28;20044;-50
2022/09/12 05:20:19;;;;;;;4.72;1.52;;;;;;;;;;5095247;28;20135;-52
2022/09/12 05:22:49;;;;;;;3.30;1.38;;;;;;;;;;5095439;28;20052;-54
2022/09/12 05:25:19;;;;;;;8.20;1.20;;;;;;;;;;5095301;28;20056;-53
2022/09/12 05:27:46;;;;;;;5.38;1.70;;;;;;;;;;5094780;28;20544;-54
2022/09/12 05:30:24;;;;;;;5.30;1.38;;;;;;;;;;5095059;28;20044;-53
2022/09/12 05:32:54;;;;;;;6.65;1.55;;;;;;;;;;5095328;28;20044;-53
2022/09/12 05:35:24;;;;;;;7.32;1.90;;;;;;;;;;5095026;28;20055;-50
2022/09/12 05:37:51;;;;;;;3.72;1.55;;;;;;;;;;5095147;28;20055;-51
2022/09/12 05:40:21;;;;;;;3.28;1.33;;;;;;;;;;5087199;28;20389;-52
2022/09/12 05:42:52;;;;;;;4.03;1.60;;;;;;;;;;5074878;28;20048;-51
2022/09/12 05:45:28;;;;;;;4.40;1.30;;;;;;;;;;5074254;28;20048;-52
2022/09/12 05:47:54;;;;;;;2.28;1.27;;;;;;;;;;5074848;28;20110;-52
2022/09/12 05:50:21;;;;;;;5.43;1.50;;;;;;;;;;5074609;28;20052;-53
2022/09/12 05:52:49;;;;;;;5.13;1.60;;;;;;;;;;5067590;28;20049;-53
2022/09/12 05:55:19;;;;;;;7.22;1.48;;;;;;;;;;5054588;28;20056;-53
2022/09/12 05:57:46;;;;;;;4.40;1.05;;;;;;;;;;5054545;28;20167;-54
2022/09/12 06:00:14;;;;;;;5.43;1.45;;;;;;;;;;5066192;28;20048;-52
2022/09/12 06:02:58;;;;;;;2.95;1.38;;;;;;;;;;5074415;28;20052;-54
2022/09/12 06:05:27;;;;;;;3.30;1.35;;;;;;;;;;5074297;28;20055;-50
2022/09/12 06:07:57;;;;;;;5.32;1.95;;;;;;;;;;5057013;28;20053;-52
2022/09/12 06:10:25;;;;;;;5.97;1.77;;;;;;;;;;5062197;28;20053;-48
2022/09/12 06:12:52;;;;;;;8.45;1.80;;;;;;;;;;5055234;28;20064;-47
2022/09/12 06:15:20;;;;;;;8.00;2.00;;;;;;;;;;5066073;28;20500;-49
2022/09/12 06:18:00;;;;;;;3.05;1.30;;;;;;;;;;5055720;28;20064;-48
2022/09/12 06:20:30;;;;;;;4.63;1.38;;;;;;;;;;5060419;28;20480;-48
2022/09/12 06:22:58;;;;;;;2.47;1.10;;;;;;;;;;5062711;28;20118;-47
2022/09/12 06:25:28;;;;;;;4.05;1.30;;;;;;;;;;5053690;28;20049;-49
2022/09/12 06:27:57;;;;;;;1.92;0.85;;;;;;;;;;5069529;28;20150;-51
2022/09/12 06:30:26;;;;;;;4.28;1.30;;;;;;;;;;5059567;28;20450;-48
2022/09/12 06:32:55;;;;;;;5.68;1.00;;;;;;;;;;5062074;28;20055;-52
2022/09/12 06:35:22;;;;;;;1.92;0.85;;;;;;;;;;5066713;28;20156;-48
2022/09/12 06:37:48;;;;;;;2.88;1.20;;;;;;;;;;5069194;28;20045;-49
2022/09/12 06:40:14;;;;;;;2.90;1.10;;;;;;;;;;5060420;28;20041;-48
2022/09/12 06:42:41;;;;;;;2.80;1.33;;;;;;;;;;5052258;28;20064;-51
2022/09/12 06:45:07;;;;;;;5.68;1.05;;;;;;;;;;5064292;28;20044;-48
2022/09/12 06:47:38;;;;;;;1.50;1.00;;;;;;;;;;5057055;28;20053;-48
2022/09/12 06:50:06;;;;;;;2.00;1.00;;;;;;;;;;5057286;28;20044;-48
2022/09/12 06:52:37;;;;;;;1.52;0.93;;;;;;;;;;5069678;28;20052;-47
2022/09/12 06:55:04;;;;;;;2.30;1.20;;;;;;;;;;5065665;28;20545;-47
2022/09/12 06:57:35;;;;;;;4.97;1.40;;;;;;;;;;5045933;23;20065;-92
2022/09/12 07:00:01;;;;;;;1.63;0.98;;;;;;;;;;5018625;28;20046;-93
2022/09/12 07:02:28;;;;;;;3.03;0.93;;;;;;;;;;5027915;28;20140;-92
2022/09/12 07:04:54;;;;;;;2.92;0.90;;;;;;;;;;5036298;28;20049;-92
2022/09/12 07:07:23;;;;;;;3.53;1.33;;;;;;;;;;5042066;28;20060;-94
2022/09/12 07:09:49;;;;;;;5.55;1.10;;;;;;;;;;5038028;28;20045;-94
2022/09/12 07:12:16;;;;;;;6.38;1.17;;;;;;;;;;5040799;28;20049;-92
2022/09/12 07:14:44;;;;;;;4.63;0.90;;;;;;;;;;5059448;22;20057;-50
2022/09/12 07:17:14;;;;;;;40.38;2.38;;;;;;;;;;5050575;28;20132;-50
2022/09/12 07:19:41;;;;;;;1.42;0.70;;;;;;;;;;5051656;28;20056;-50
2022/09/12 07:22:09;;;;;;;3.45;0.80;;;;;;;;;;5042244;28;20061;-50
2022/09/12 07:27:18;;;;;;;2.85;0.80;;;;;;;;;;5049022;28;20063;-51
2022/09/12 07:29:46;;;;;;;4.68;0.80;;;;;;;;;;5038586;28;20117;-50
2022/09/12 07:32:16;;;;;;;3.67;0.70;;;;;;;;;;5052138;28;20045;-54
2022/09/12 07:34:42;;;;;;;3.95;1.30;;;;;;;;;;5052372;28;20063;-51
2022/09/12 07:37:13;;;;;;;2.58;1.02;;;;;;;;;;5036130;28;20057;-51
2022/09/12 07:39:56;;;;;;;2.55;0.80;;;;;;;;;;5049466;28;20045;-51
2022/09/12 07:42:22;;;;;;;5.63;0.90;;;;;;;;;;5038514;28;20464;-52
2022/09/12 07:44:52;;;;;;;3.65;0.88;;;;;;;;;;5037195;28;20052;-53
2022/09/12 07:47:22;;;;;;;1.25;0.60;;;;;;;;;;5052508;28;20057;-51
2022/09/12 07:49:52;;;;;;;6.32;0.82;;;;;;;;;;5047296;28;20403;-50
2022/09/12 07:52:20;;;;;;;2.45;0.77;;;;;;;;;;5053108;28;20128;-50
2022/09/12 07:55:02;;;;;;;5.75;1.10;;;;;;;;;;5050405;28;20091;-51
2022/09/12 07:57:31;;;;;;;8.15;1.10;;;;;;;;;;5052461;28;20049;-52
2022/09/12 08:00:02;;;;;;;1.45;0.80;;;;;;;;;;5044189;28;20089;-55
2022/09/12 08:02:30;;;;;;;2.70;0.73;;;;;;;;;;5036529;28;20053;-51
2022/09/12 08:05:01;;;;;;;6.00;1.25;;;;;;;;;;5052365;28;20049;-52
2022/09/12 08:07:28;;;;;;;1.98;0.70;;;;;;;;;;5050452;28;20059;-54
2022/09/12 08:10:10;;;;;;;3.38;0.80;;;;;;;;;;5047159;28;20084;-51
2022/09/12 08:12:38;;;;;;;1.35;0.73;;;;;;;;;;5049563;28;20051;-55
2022/09/12 08:15:09;;;;;;;2.70;0.80;;;;;;;;;;5039430;28;20061;-52
2022/09/12 08:17:37;;;;;;;1.60;0.80;;;;;;;;;;5055959;28;20049;-54
2022/09/12 08:20:05;;;;;;;1.63;0.85;;;;;;;;;;5046408;28;20137;-51
2022/09/12 08:22:35;;;;;;;3.50;0.63;;;;;;;;;;5046160;28;20055;-51
2022/09/12 08:25:16;;;;;;;1.38;0.60;;;;;;;;;;5050438;28;20055;-52
2022/09/12 08:27:43;;;;;;;2.97;0.80;;;;;;;;;;5053298;28;20057;-51
2022/09/12 08:30:11;;;;;;;1.90;0.60;;;;;;;;;;5049194;28;20049;-52
2022/09/12 08:32:41;;;;;;;2.25;0.73;;;;;;;;;;5055253;28;20060;-54
2022/09/12 08:35:11;;;;;;;1.48;0.77;;;;;;;;;;5039449;28;20053;-54
2022/09/12 08:37:41;;;;;;;4.20;0.90;;;;;;;;;;5049090;28;20491;-55
2022/09/12 08:40:18;;;;;;;1.05;0.50;;;;;;;;;;5036670;28;20592;-53
2022/09/12 08:42:58;;;;;;;2.67;1.08;;;;;;;;;;5035441;28;20469;-54
2022/09/12 08:45:34;;;;;;;1.23;0.70;;;;;;;;;;5038912;28;20048;-51
2022/09/12 08:48:06;;;;;;;1.55;0.63;;;;;;;;;;5046963;28;20072;-52
2022/09/12 08:50:35;;;;;;;1.60;0.63;;;;;;;;;;5047873;28;20064;-54
2022/09/12 08:53:12;;;;;;;3.28;0.73;;;;;;;;;;5047069;28;20060;-51
2022/09/12 08:55:45;;;;;;;2.47;0.60;;;;;;;;;;5040693;28;20053;-52
2022/09/12 08:58:18;;;;;;;3.80;1.00;;;;;;;;;;5046803;28;20140;-52
2022/09/12 09:00:52;;;;;;;1.48;0.63;;;;;;;;;;5040786;28;20061;-53
2022/09/12 09:03:54;;;;;;;1.90;0.52;;;;;;;;;;5037658;28;20064;-51
2022/09/12 09:06:40;;;;;;;1.55;0.70;;;;;;;;;;5048786;28;20735;-52
2022/09/12 09:09:12;;;;;;;2.35;0.70;;;;;;;;;;5053865;28;20075;-48
2022/09/12 09:11:54;;;;;;;1.77;0.70;;;;;;;;;;5040589;28;20049;-49
2022/09/12 09:17:24;;;;;;;8.25;1.15;;;;;;;;;;5051247;28;20076;-54
2022/09/12 09:19:55;;;;;;;4.05;0.70;;;;;;;;;;5042021;28;20128;-53
2022/09/12 09:22:28;;;;;;;3.78;0.70;;;;;;;;;;5047859;28;20053;-53
2022/09/12 09:25:01;;;;;;;2.03;0.82;;;;;;;;;;5054562;28;20053;-50
2022/09/12 09:27:32;;;;;;;2.15;0.68;;;;;;;;;;5038367;28;20594;-55
2022/09/12 09:30:00;;;;;;;2.55;0.75;;;;;;;;;;5046542;28;20053;-51
2022/09/12 09:32:30;;;;;;;1.75;0.73;;;;;;;;;;5046592;28;20056;-51
2022/09/12 09:35:00;;;;;;;1.40;0.43;;;;;;;;;;5054673;28;20110;-51
2022/09/12 09:37:31;;;;;;;1.30;0.70;;;;;;;;;;5034680;28;20157;-50
2022/09/12 09:40:05;;;;;;;3.35;0.60;;;;;;;;;;5042624;28;20053;-51
2022/09/12 09:42:38;;;;;;;3.83;0.60;;;;;;;;;;5041598;28;20053;-50
2022/09/12 09:45:16;;;;;;;2.53;0.52;;;;;;;;;;5051529;28;20159;-51
2022/09/12 09:47:48;;;;;;;1.60;0.52;;;;;;;;;;5047952;28;20477;-51
2022/09/12 09:50:18;;;;;;;0.82;0.50;;;;;;;;;;5044562;28;20132;-51
2022/09/12 09:52:48;;;;;;;1.17;0.57;;;;;;;;;;5045978;28;20166;-51
2022/09/12 09:55:25;;;;;;;1.10;0.55;;;;;;;;;;5037474;28;20081;-50
2022/09/12 09:57:54;;;;;;;1.80;0.75;;;;;;;;;;5046866;28;20046;-50
2022/09/12 10:00:34;;;;;;;2.55;0.70;;;;;;;;;;5052688;28;20045;-50
2022/09/12 10:03:11;;;;;;;3.45;0.60;;;;;;;;;;5052756;28;20061;-50
2022/09/12 10:05:45;;;;;;;1.17;0.50;;;;;;;;;;5039413;28;20048;-51
2022/09/12 10:08:22;;;;;;;0.77;0.40;;;;;;;;;;5043616;28;20053;-51
2022/09/12 10:11:04;;;;;;;2.47;1.00;;;;;;;;;;5038657;28;20057;-50
2022/09/12 10:13:41;;;;;;;2.70;1.00;;;;;;;;;;5039010;28;20064;-51
2022/09/12 10:16:19;;;;;;;1.25;0.50;;;;;;;;;;5033668;28;20061;-50
2022/09/12 10:18:49;;;;;;;3.20;0.80;;;;;;;;;;5048427;28;20053;-49
2022/09/12 10:21:31;;;;;;;1.20;0.68;;;;;;;;;;5039313;28;20049;-52
2022/09/12 10:24:02;;;;;;;3.38;0.73;;;;;;;;;;5062974;28;20607;-49
2022/09/12 10:26:36;;;;;;;4.30;0.80;;;;;;;;;;5041210;28;20052;-50
2022/09/12 10:29:18;;;;;;;1.15;0.50;;;;;;;;;;5033586;28;20139;-50
2022/09/12 10:31:50;;;;;;;3.60;0.93;;;;;;;;;;5046241;28;20052;-50
2022/09/12 10:34:27;;;;;;;1.27;0.75;;;;;;;;;;5043831;28;20049;-50
2022/09/12 10:36:58;;;;;;;2.65;0.55;;;;;;;;;;5036905;28;20429;-52
2022/09/12 10:39:27;;;;;;;4.07;0.70;;;;;;;;;;5050245;28;20049;-51
2022/09/12 10:41:53;;;;;;;2.35;0.57;;;;;;;;;;5040529;28;20049;-53
2022/09/12 10:44:28;;;;;;;1.75;0.60;;;;;;;;;;5042244;28;20049;-54
2022/09/12 10:47:07;;;;;;;;;;;;;;;;;;5049904;28;20059;-49
2022/09/12 10:49:39;;;;;;;2.80;0.70;;;;;;;;;;5033049;28;20230;-50
2022/09/12 10:52:21;;;;;;;3.20;0.70;;;;;;;;;;5039940;28;20045;-50
2022/09/12 10:54:48;;;;;;;0.70;0.50;;;;;;;;;;5038980;28;20487;-50
2022/09/12 10:57:22;;;;;;;0.73;0.50;;;;;;;;;;5034253;28;20484;-51
2022/09/12 11:00:14;;;;;;;0.93;0.52;;;;;;;;;;5040709;28;20068;-50
2022/09/12 11:02:51;;;;;;;2.20;0.68;;;;;;;;;;5033260;28;20049;-51
2022/09/12 11:05:26;;;;;;;0.75;0.63;;;;;;;;;;5049106;28;20511;-50
2022/09/12 11:07:59;;;;;;;1.55;0.63;;;;;;;;;;5049511;28;20152;-50
2022/09/12 11:10:30;;;;;;;3.65;0.63;;;;;;;;;;5041053;28;20056;-50
2022/09/12 11:13:03;;;;;;;1.88;0.57;;;;;;;;;;5044048;28;20591;-50
2022/09/12 11:15:39;;;;;;;2.30;0.70;;;;;;;;;;5040157;28;20068;-50
2022/09/12 11:18:14;;;;;;;2.65;0.70;;;;;;;;;;5042616;28;20080;-51
2022/09/12 11:20:55;;;;;;;0.85;0.52;;;;;;;;;;5046641;28;20049;-50
2022/09/12 11:23:32;;;;;;;1.70;0.63;;;;;;;;;;5046031;28;20361;-51
2022/09/12 11:26:03;;;;;;;1.77;0.60;;;;;;;;;;5044699;28;20053;-50
2022/09/12 11:28:42;;;;;;;2.58;0.73;;;;;;;;;;5044939;28;20048;-50
2022/09/12 11:31:22;;;;;;;1.65;0.70;;;;;;;;;;5051387;28;20049;-50
2022/09/12 11:33:50;;;;;;;2.92;0.88;;;;;;;;;;5039639;28;20132;-51
2022/09/12 11:36:34;;;;;;;1.98;0.90;;;;;;;;;;5042205;28;20060;-50
2022/09/12 11:39:12;;;;;;;1.88;0.80;;;;;;;;;;5049298;28;20045;-50
2022/09/12 11:41:44;;;;;;;2.47;0.60;;;;;;;;;;5037942;28;20114;-49
2022/09/12 11:44:15;;;;;;;0.80;0.45;;;;;;;;;;5042503;28;20836;-50
2022/09/12 11:46:49;;;;;;;1.65;0.88;;;;;;;;;;5047305;28;20072;-50
2022/09/12 11:49:28;;;;;;;9.00;1.20;;;;;;;;;;5036173;28;20042;-50
2022/09/12 11:51:57;;;;;;;2.42;0.90;;;;;;;;;;5044708;28;20045;-50
2022/09/12 11:54:28;;;;;;;1.63;0.60;;;;;;;;;;5043974;28;20053;-51
2022/09/12 11:57:01;;;;;;;0.95;0.50;;;;;;;;;;5052479;28;20064;-54
2022/09/12 11:59:35;;;;;;;0.98;0.52;;;;;;;;;;5040437;28;20107;-51
2022/09/12 12:02:13;;;;;;;2.80;0.90;;;;;;;;;;5032156;28;20124;-51
2022/09/12 12:04:44;;;;;;;1.23;0.70;;;;;;;;;;5046268;28;20057;-52
2022/09/12 12:07:14;;;;;;;1.52;0.60;;;;;;;;;;5045892;28;20483;-50
2022/09/12 12:09:46;;;;;;;1.83;0.70;;;;;;;;;;5046552;28;20057;-52
2022/09/12 12:12:17;;;;;;;2.92;0.90;;;;;;;;;;5042578;28;20049;-47
2022/09/12 12:14:48;;;;;;;1.80;0.80;;;;;;;;;;5049812;28;20072;-48
2022/09/12 12:17:21;;;;;;;1.13;0.47;;;;;;;;;;5049466;28;20444;-47
2022/09/12 12:19:56;;;;;;;1.35;0.73;;;;;;;;;;5038637;28;20061;-50
2022/09/12 12:22:26;;;;;;;7.15;1.48;;;;;;;;;;5043363;28;20045;-53
2022/09/12 12:25:00;;;;;;;4.63;0.70;;;;;;;;;;5050961;28;20049;-51
2022/09/12 12:27:47;;;;;;;6.22;0.80;;;;;;;;;;5035230;28;20049;-50
2022/09/12 12:30:29;;;;;;;2.05;0.95;;;;;;;;;;5046247;28;20059;-50
2022/09/12 12:33:14;;;;;;;2.70;0.70;;;;;;;;;;5037076;28;20049;-52
2022/09/12 12:36:04;;;;;;;1.60;0.70;;;;;;;;;;5054040;28;20059;-52
2022/09/12 12:38:36;;;;;;;2.83;0.93;;;;;;;;;;5053784;28;20053;-49
2022/09/12 12:41:23;;;;;;;1.98;0.77;;;;;;;;;;5053496;28;20380;-51
2022/09/12 12:43:52;;;;;;;2.63;0.80;;;;;;;;;;5053871;28;20053;-50
2022/09/12 12:46:21;;;;;;;4.60;0.70;;;;;;;;;;5053738;28;20064;-51
2022/09/12 12:49:19;;;;;;;5.22;0.80;;;;;;;;;;5053521;28;20135;-51
2022/09/12 12:52:00;;;;;;;2.30;0.88;;;;;;;;;;5055857;28;20132;-51
2022/09/12 12:54:29;;;;;;;1.38;0.73;;;;;;;;;;5034812;28;20084;-50
2022/09/12 12:57:18;;;;;;;1.85;0.82;;;;;;;;;;5034368;28;20054;-53
2022/09/12 12:59:48;;;;;;;1.30;0.65;;;;;;;;;;5048429;28;20080;-49
2022/09/12 13:02:18;;;;;;;33.00;2.65;;;;;;;;;;5053661;28;20051;-50
2022/09/12 13:04:46;;;;;;;1.67;0.60;;;;;;;;;;5054282;28;20056;-50
2022/09/12 13:07:23;;;;;;;15.25;1.50;;;;;;;;;;5054011;28;20061;-53
2022/09/12 13:09:51;;;;;;;2.85;0.70;;;;;;;;;;5055174;28;20060;-53
2022/09/12 13:12:22;;;;;;;1.10;0.50;;;;;;;;;;5054966;28;20072;-54
2022/09/12 13:15:02;;;;;;;1.60;0.60;;;;;;;;;;5054699;28;20079;-54
2022/09/12 13:17:32;;;;;;;1.02;0.73;;;;;;;;;;5055336;28;20433;-53
2022/09/12 13:20:18;;;;;;;2.35;0.70;;;;;;;;;;5055190;28;20053;-50
2022/09/12 13:22:55;;;;;;;2.42;0.80;;;;;;;;;;5055155;28;20128;-54
2022/09/12 13:25:29;;;;;;;10.82;1.30;;;;;;;;;;5055245;28;20086;-53
2022/09/12 13:28:05;;;;;;;1.85;0.60;;;;;;;;;;5055161;28;20045;-50
2022/09/12 13:30:36;;;;;;;;;;;;;;;;;;5055447;28;20063;-53
2022/09/12 13:33:18;;;;;;;1.05;0.52;;;;;;;;;;5054632;28;19920;-53
2022/09/12 13:36:11;;;;;;;3.75;0.70;;;;;;;;;;5051510;28;20110;-52
2022/09/12 13:38:46;;;;;;;1.00;0.55;;;;;;;;;;5054718;28;20053;-50
2022/09/12 13:41:21;;;;;;;4.43;0.70;;;;;;;;;;5054935;28;20056;-52
2022/09/12 13:43:50;;;;;;;0.93;0.47;;;;;;;;;;5054383;28;20056;-50
2022/09/12 13:46:24;;;;;;;2.72;0.60;;;;;;;;;;5054754;28;20045;-53
2022/09/12 13:48:51;;;;;;;1.55;0.60;;;;;;;;;;5054955;28;20144;-50
2022/09/12 13:51:23;;;;;;;2.10;0.90;;;;;;;;;;5054382;28;20061;-53
2022/09/12 13:53:56;;;;;;;3.42;0.75;;;;;;;;;;5054462;28;20053;-51
2022/09/12 13:56:26;;;;;;;1.80;0.70;;;;;;;;;;5054650;28;20048;-53
2022/09/12 13:59:02;;;;;;;3.83;1.20;;;;;;;;;;5047388;28;20136;-54
2022/09/12 14:01:40;;;;;;;2.70;0.70;;;;;;;;;;5034229;28;20564;-53
2022/09/12 14:07:02;;;;;;;1.95;0.60;;;;;;;;;;5044356;28;20048;-51
2022/09/12 14:09:37;;;;;;;1.00;0.68;;;;;;;;;;5053755;28;20362;-50
2022/09/12 14:12:06;;;;;;;1.35;0.70;;;;;;;;;;5054267;28;20049;-50
2022/09/12 14:14:35;;;;;;;1.15;0.50;;;;;;;;;;5044732;28;20477;-52
2022/09/12 14:17:14;;;;;;;1.55;0.85;;;;;;;;;;5032477;28;20067;-54
2022/09/12 14:19:45;;;;;;;0.95;0.70;;;;;;;;;;5049778;28;20775;-54
2022/09/12 14:22:17;;;;;;;2.42;0.93;;;;;;;;;;5045506;28;20123;-52
2022/09/12 14:24:50;;;;;;;1.50;0.55;;;;;;;;;;5053813;28;20128;-54
2022/09/12 14:27:22;;;;;;;0.80;0.50;;;;;;;;;;5040986;28;20057;-52
2022/09/12 14:29:53;;;;;;;1.52;0.70;;;;;;;;;;5049335;28;20055;-51
2022/09/12 14:32:31;;;;;;;1.02;0.40;;;;;;;;;;5053182;28;20115;-50
2022/09/12 14:35:26;;;;;;;1.58;0.68;;;;;;;;;;5053300;28;20052;-51
2022/09/12 14:37:54;;;;;;;2.10;0.85;;;;;;;;;;5052275;28;20485;-52
2022/09/12 14:40:24;;;;;;;2.88;0.63;;;;;;;;;;5053337;28;20052;-55
2022/09/12 14:42:52;;;;;;;0.82;0.55;;;;;;;;;;5047967;28;20045;-53
2022/09/12 14:45:23;;;;;;;2.90;0.60;;;;;;;;;;5053289;28;20139;-51
2022/09/12 14:47:53;;;;;;;2.22;0.52;;;;;;;;;;5036680;28;20057;-51
2022/09/12 14:50:25;;;;;;;6.68;0.73;;;;;;;;;;5052389;28;20076;-52
2022/09/12 14:53:06;;;;;;;4.15;1.08;;;;;;;;;;5050810;28;20476;-52
2022/09/12 14:55:44;;;;;;;2.20;0.60;;;;;;;;;;5038107;28;20084;-52
2022/09/12 14:58:16;;;;;;;2.22;0.70;;;;;;;;;;5035746;28;20045;-52
2022/09/12 15:00:54;;;;;;;1.85;0.73;;;;;;;;;;5049197;28;20053;-51
2022/09/12 15:03:28;;;;;;;2.20;0.85;;;;;;;;;;5050620;28;20056;-50
2022/09/12 15:05:57;;;;;;;1.42;0.60;;;;;;;;;;5052928;28;20049;-50
2022/09/12 15:08:28;;;;;;;1.67;0.68;;;;;;;;;;5047451;28;20059;-51
2022/09/12 15:11:04;;;;;;;3.72;0.70;;;;;;;;;;5043097;28;20045;-52
2022/09/12 15:13:41;;;;;;;7.65;1.08;;;;;;;;;;5037705;28;20435;-50
2022/09/12 15:16:09;;;;;;;2.10;0.80;;;;;;;;;;5032518;28;20067;-51
2022/09/12 15:18:39;;;;;;;1.75;0.50;;;;;;;;;;5040629;28;20052;-51
2022/09/12 15:21:10;;;;;;;2.08;0.68;;;;;;;;;;5041571;28;20172;-52
2022/09/12 15:23:51;;;;;;;1.00;0.60;;;;;;;;;;5049115;28;20053;-51
2022/09/12 15:26:34;;;;;;;2.97;0.60;;;;;;;;;;5038040;28;20056;-51